sensor_id;sensor_type;location;lat;lon;timestamp;P1;durP1;ratioP1;P2;durP2;ratioP2
38034;SDS011;23841;48.524;1.342;2022-12-18T00:01:36;23.42;;;11.57;;
38034;SDS011;23841;48.524;1.342;2022-12-18T00:04:02;23.52;;;12.23;;
38034;SDS011;23841;48.524;1.342;2022-12-18T00:06:29;27.58;;;13.45;;
38034;SDS011;23841;48.524;1.342;2022-12-18T00:08:55;23.52;;;11.52;;
38034;SDS011;23841;48.524;1.342;2022-12-18T00:11:21;26.50;;;12.70;;
38034;SDS011;23841;48.524;1.342;2022-12-18T00:13:48;24.42;;;11.75;;
38034;SDS011;23841;48.524;1.342;2022-12-18T00:16:15;21.73;;;11.05;;
38034;SDS011;23841;48.524;1.342;2022-12-18T00:18:40;24.02;;;12.50;;
38034;SDS011;23841;48.524;1.342;2022-12-18T00:21:07;24.52;;;13.13;;
38034;SDS011;23841;48.524;1.342;2022-12-18T00:23:34;24.38;;;12.23;;
38034;SDS011;23841;48.524;1.342;2022-12-18T00:26:00;24.05;;;12.23;;
38034;SDS011;23841;48.524;1.342;2022-12-18T00:28:26;22.75;;;11.35;;
38034;SDS011;23841;48.524;1.342;2022-12-18T00:30:59;22.98;;;12.02;;
38034;SDS011;23841;48.524;1.342;2022-12-18T00:33:24;22.52;;;11.68;;
38034;SDS011;23841;48.524;1.342;2022-12-18T00:35:49;25.38;;;12.68;;
38034;SDS011;23841;48.524;1.342;2022-12-18T00:38:14;21.42;;;11.73;;
38034;SDS011;23841;48.524;1.342;2022-12-18T00:40:40;26.77;;;12.43;;
38034;SDS011;23841;48.524;1.342;2022-12-18T00:43:05;22.85;;;12.10;;
38034;SDS011;23841;48.524;1.342;2022-12-18T00:45:30;23.27;;;11.20;;
38034;SDS011;23841;48.524;1.342;2022-12-18T00:47:56;26.08;;;12.27;;
38034;SDS011;23841;48.524;1.342;2022-12-18T00:50:23;24.25;;;12.02;;
38034;SDS011;23841;48.524;1.342;2022-12-18T00:52:48;25.27;;;12.32;;
38034;SDS011;23841;48.524;1.342;2022-12-18T00:55:14;23.67;;;11.88;;
38034;SDS011;23841;48.524;1.342;2022-12-18T00:57:40;27.67;;;13.18;;
38034;SDS011;23841;48.524;1.342;2022-12-18T01:00:07;22.35;;;11.85;;
38034;SDS011;23841;48.524;1.342;2022-12-18T01:02:33;24.25;;;12.13;;
38034;SDS011;23841;48.524;1.342;2022-12-18T01:04:59;23.20;;;11.35;;
38034;SDS011;23841;48.524;1.342;2022-12-18T01:07:24;21.85;;;11.20;;
38034;SDS011;23841;48.524;1.342;2022-12-18T01:09:49;23.35;;;10.88;;
38034;SDS011;23841;48.524;1.342;2022-12-18T01:12:15;25.38;;;12.45;;
38034;SDS011;23841;48.524;1.342;2022-12-18T01:14:40;25.20;;;12.55;;
38034;SDS011;23841;48.524;1.342;2022-12-18T01:17:06;25.15;;;12.43;;
38034;SDS011;23841;48.524;1.342;2022-12-18T01:19:31;25.42;;;13.20;;
38034;SDS011;23841;48.524;1.342;2022-12-18T01:21:57;26.08;;;13.05;;
38034;SDS011;23841;48.524;1.342;2022-12-18T01:24:22;26.45;;;12.45;;
38034;SDS011;23841;48.524;1.342;2022-12-18T01:26:47;23.10;;;12.07;;
38034;SDS011;23841;48.524;1.342;2022-12-18T01:29:13;23.63;;;12.30;;
38034;SDS011;23841;48.524;1.342;2022-12-18T01:31:38;25.80;;;13.57;;
38034;SDS011;23841;48.524;1.342;2022-12-18T01:34:04;26.85;;;13.00;;
38034;SDS011;23841;48.524;1.342;2022-12-18T01:36:34;24.58;;;12.48;;
38034;SDS011;23841;48.524;1.342;2022-12-18T01:39:10;25.40;;;12.75;;
38034;SDS011;23841;48.524;1.342;2022-12-18T01:41:36;25.15;;;12.63;;
38034;SDS011;23841;48.524;1.342;2022-12-18T01:47:03;23.73;;;12.00;;
38034;SDS011;23841;48.524;1.342;2022-12-18T01:49:28;26.63;;;13.02;;
38034;SDS011;23841;48.524;1.342;2022-12-18T01:51:54;26.15;;;11.75;;
38034;SDS011;23841;48.524;1.342;2022-12-18T01:54:19;26.63;;;12.15;;
38034;SDS011;23841;48.524;1.342;2022-12-18T01:56:44;24.90;;;12.05;;
38034;SDS011;23841;48.524;1.342;2022-12-18T01:59:10;24.10;;;12.15;;
38034;SDS011;23841;48.524;1.342;2022-12-18T02:01:36;26.95;;;12.80;;
38034;SDS011;23841;48.524;1.342;2022-12-18T02:06:47;27.27;;;13.43;;
38034;SDS011;23841;48.524;1.342;2022-12-18T02:09:15;24.17;;;12.27;;
38034;SDS011;23841;48.524;1.342;2022-12-18T02:17:04;26.02;;;12.27;;
38034;SDS011;23841;48.524;1.342;2022-12-18T02:24:37;25.42;;;12.93;;
38034;SDS011;23841;48.524;1.342;2022-12-18T02:27:07;24.48;;;12.13;;
38034;SDS011;23841;48.524;1.342;2022-12-18T02:32:04;25.63;;;12.45;;
38034;SDS011;23841;48.524;1.342;2022-12-18T02:34:31;24.23;;;12.25;;
38034;SDS011;23841;48.524;1.342;2022-12-18T02:36:58;29.65;;;12.82;;
38034;SDS011;23841;48.524;1.342;2022-12-18T02:39:25;23.77;;;11.50;;
38034;SDS011;23841;48.524;1.342;2022-12-18T02:41:51;24.73;;;12.20;;
38034;SDS011;23841;48.524;1.342;2022-12-18T02:44:17;25.23;;;12.52;;
38034;SDS011;23841;48.524;1.342;2022-12-18T02:46:43;28.50;;;13.55;;
38034;SDS011;23841;48.524;1.342;2022-12-18T02:49:17;24.75;;;12.95;;
38034;SDS011;23841;48.524;1.342;2022-12-18T02:56:46;26.00;;;13.18;;
38034;SDS011;23841;48.524;1.342;2022-12-18T02:59:13;25.95;;;12.88;;
38034;SDS011;23841;48.524;1.342;2022-12-18T03:04:16;26.52;;;12.40;;
38034;SDS011;23841;48.524;1.342;2022-12-18T03:06:44;27.73;;;13.40;;
38034;SDS011;23841;48.524;1.342;2022-12-18T03:09:17;23.60;;;12.48;;
38034;SDS011;23841;48.524;1.342;2022-12-18T03:11:44;26.85;;;13.32;;
38034;SDS011;23841;48.524;1.342;2022-12-18T03:14:30;27.60;;;13.77;;
38034;SDS011;23841;48.524;1.342;2022-12-18T03:16:57;27.50;;;13.45;;
38034;SDS011;23841;48.524;1.342;2022-12-18T03:19:25;27.30;;;13.32;;
38034;SDS011;23841;48.524;1.342;2022-12-18T03:21:53;30.20;;;13.82;;
38034;SDS011;23841;48.524;1.342;2022-12-18T03:24:19;27.95;;;14.23;;
38034;SDS011;23841;48.524;1.342;2022-12-18T03:26:47;26.38;;;13.48;;
38034;SDS011;23841;48.524;1.342;2022-12-18T03:29:14;26.92;;;13.50;;
38034;SDS011;23841;48.524;1.342;2022-12-18T03:31:42;25.80;;;13.57;;
38034;SDS011;23841;48.524;1.342;2022-12-18T03:34:14;29.48;;;14.50;;
38034;SDS011;23841;48.524;1.342;2022-12-18T03:36:40;29.73;;;13.38;;
38034;SDS011;23841;48.524;1.342;2022-12-18T03:39:05;27.67;;;13.88;;
38034;SDS011;23841;48.524;1.342;2022-12-18T03:41:32;26.80;;;13.65;;
38034;SDS011;23841;48.524;1.342;2022-12-18T03:46:32;30.02;;;14.20;;
38034;SDS011;23841;48.524;1.342;2022-12-18T03:49:03;32.58;;;14.63;;
38034;SDS011;23841;48.524;1.342;2022-12-18T03:51:42;27.92;;;12.95;;
38034;SDS011;23841;48.524;1.342;2022-12-18T03:54:08;31.02;;;15.02;;
38034;SDS011;23841;48.524;1.342;2022-12-18T03:56:44;27.25;;;14.38;;
38034;SDS011;23841;48.524;1.342;2022-12-18T04:01:37;27.17;;;14.05;;
38034;SDS011;23841;48.524;1.342;2022-12-18T04:04:04;30.88;;;14.93;;
38034;SDS011;23841;48.524;1.342;2022-12-18T04:06:29;29.10;;;14.60;;
38034;SDS011;23841;48.524;1.342;2022-12-18T04:08:56;29.60;;;14.23;;
38034;SDS011;23841;48.524;1.342;2022-12-18T04:11:22;27.83;;;13.95;;
38034;SDS011;23841;48.524;1.342;2022-12-18T04:13:47;27.67;;;13.98;;
38034;SDS011;23841;48.524;1.342;2022-12-18T04:16:12;29.10;;;13.15;;
38034;SDS011;23841;48.524;1.342;2022-12-18T04:18:37;29.10;;;14.05;;
38034;SDS011;23841;48.524;1.342;2022-12-18T04:21:03;29.98;;;14.63;;
38034;SDS011;23841;48.524;1.342;2022-12-18T04:23:28;26.65;;;13.98;;
38034;SDS011;23841;48.524;1.342;2022-12-18T04:25:53;27.63;;;14.15;;
38034;SDS011;23841;48.524;1.342;2022-12-18T04:28:19;25.17;;;13.45;;
38034;SDS011;23841;48.524;1.342;2022-12-18T04:30:44;27.48;;;13.43;;
38034;SDS011;23841;48.524;1.342;2022-12-18T04:33:18;26.77;;;13.38;;
38034;SDS011;23841;48.524;1.342;2022-12-18T04:35:43;26.00;;;13.43;;
38034;SDS011;23841;48.524;1.342;2022-12-18T04:38:08;29.35;;;13.10;;
38034;SDS011;23841;48.524;1.342;2022-12-18T04:40:35;25.50;;;13.30;;
38034;SDS011;23841;48.524;1.342;2022-12-18T04:43:00;26.13;;;12.93;;
38034;SDS011;23841;48.524;1.342;2022-12-18T04:45:25;24.50;;;13.02;;
38034;SDS011;23841;48.524;1.342;2022-12-18T04:47:51;25.60;;;13.40;;
38034;SDS011;23841;48.524;1.342;2022-12-18T04:50:16;25.38;;;13.30;;
38034;SDS011;23841;48.524;1.342;2022-12-18T04:52:41;27.92;;;12.70;;
38034;SDS011;23841;48.524;1.342;2022-12-18T04:55:07;24.00;;;12.70;;
38034;SDS011;23841;48.524;1.342;2022-12-18T04:57:32;26.60;;;13.90;;
38034;SDS011;23841;48.524;1.342;2022-12-18T04:59:57;27.70;;;14.88;;
38034;SDS011;23841;48.524;1.342;2022-12-18T05:02:23;25.90;;;14.68;;
38034;SDS011;23841;48.524;1.342;2022-12-18T05:04:48;23.92;;;13.40;;
38034;SDS011;23841;48.524;1.342;2022-12-18T05:07:13;28.58;;;15.00;;
38034;SDS011;23841;48.524;1.342;2022-12-18T05:09:38;26.27;;;12.93;;
38034;SDS011;23841;48.524;1.342;2022-12-18T05:12:04;26.15;;;13.35;;
38034;SDS011;23841;48.524;1.342;2022-12-18T05:14:30;27.42;;;13.30;;
38034;SDS011;23841;48.524;1.342;2022-12-18T05:16:56;27.98;;;13.45;;
38034;SDS011;23841;48.524;1.342;2022-12-18T05:19:21;25.48;;;13.90;;
38034;SDS011;23841;48.524;1.342;2022-12-18T05:21:46;27.83;;;13.93;;
38034;SDS011;23841;48.524;1.342;2022-12-18T05:24:12;27.00;;;14.45;;
38034;SDS011;23841;48.524;1.342;2022-12-18T05:26:37;26.45;;;13.30;;
38034;SDS011;23841;48.524;1.342;2022-12-18T05:29:02;25.48;;;12.77;;
38034;SDS011;23841;48.524;1.342;2022-12-18T05:31:28;26.75;;;13.93;;
38034;SDS011;23841;48.524;1.342;2022-12-18T05:33:53;26.45;;;14.13;;
38034;SDS011;23841;48.524;1.342;2022-12-18T05:36:19;29.25;;;14.27;;
38034;SDS011;23841;48.524;1.342;2022-12-18T05:38:44;25.88;;;12.88;;
38034;SDS011;23841;48.524;1.342;2022-12-18T05:41:09;24.27;;;13.05;;
38034;SDS011;23841;48.524;1.342;2022-12-18T05:43:35;27.23;;;14.68;;
38034;SDS011;23841;48.524;1.342;2022-12-18T05:46:07;27.88;;;12.88;;
38034;SDS011;23841;48.524;1.342;2022-12-18T05:48:32;31.08;;;14.60;;
38034;SDS011;23841;48.524;1.342;2022-12-18T05:51:03;24.40;;;12.80;;
38034;SDS011;23841;48.524;1.342;2022-12-18T05:53:28;26.77;;;13.07;;
38034;SDS011;23841;48.524;1.342;2022-12-18T05:55:53;23.58;;;12.48;;
38034;SDS011;23841;48.524;1.342;2022-12-18T05:58:19;27.25;;;13.57;;
38034;SDS011;23841;48.524;1.342;2022-12-18T06:00:45;28.10;;;13.93;;
38034;SDS011;23841;48.524;1.342;2022-12-18T06:03:11;28.40;;;14.50;;
38034;SDS011;23841;48.524;1.342;2022-12-18T06:05:40;25.20;;;12.98;;
38034;SDS011;23841;48.524;1.342;2022-12-18T06:08:06;27.30;;;14.02;;
38034;SDS011;23841;48.524;1.342;2022-12-18T06:10:31;25.42;;;12.73;;
38034;SDS011;23841;48.524;1.342;2022-12-18T06:12:56;26.40;;;13.38;;
38034;SDS011;23841;48.524;1.342;2022-12-18T06:15:22;25.05;;;13.32;;
38034;SDS011;23841;48.524;1.342;2022-12-18T06:17:47;28.33;;;14.35;;
38034;SDS011;23841;48.524;1.342;2022-12-18T06:20:12;27.25;;;13.98;;
38034;SDS011;23841;48.524;1.342;2022-12-18T06:22:37;27.50;;;12.93;;
38034;SDS011;23841;48.524;1.342;2022-12-18T06:25:03;26.48;;;14.07;;
38034;SDS011;23841;48.524;1.342;2022-12-18T06:27:29;28.60;;;15.00;;
38034;SDS011;23841;48.524;1.342;2022-12-18T06:29:54;27.13;;;14.00;;
38034;SDS011;23841;48.524;1.342;2022-12-18T06:32:19;25.67;;;12.80;;
38034;SDS011;23841;48.524;1.342;2022-12-18T06:34:44;27.73;;;13.50;;
38034;SDS011;23841;48.524;1.342;2022-12-18T06:37:10;25.02;;;13.20;;
38034;SDS011;23841;48.524;1.342;2022-12-18T06:39:35;25.13;;;13.57;;
38034;SDS011;23841;48.524;1.342;2022-12-18T06:42:00;25.58;;;14.05;;
38034;SDS011;23841;48.524;1.342;2022-12-18T06:44:26;26.98;;;12.48;;
38034;SDS011;23841;48.524;1.342;2022-12-18T06:46:51;26.92;;;13.10;;
38034;SDS011;23841;48.524;1.342;2022-12-18T06:49:16;26.08;;;14.38;;
38034;SDS011;23841;48.524;1.342;2022-12-18T06:51:42;28.38;;;15.00;;
38034;SDS011;23841;48.524;1.342;2022-12-18T06:54:07;28.83;;;13.48;;
38034;SDS011;23841;48.524;1.342;2022-12-18T06:56:33;25.83;;;13.85;;
38034;SDS011;23841;48.524;1.342;2022-12-18T06:58:58;30.17;;;14.38;;
38034;SDS011;23841;48.524;1.342;2022-12-18T07:01:23;28.98;;;14.82;;
38034;SDS011;23841;48.524;1.342;2022-12-18T07:03:52;25.50;;;13.38;;
38034;SDS011;23841;48.524;1.342;2022-12-18T07:06:19;26.88;;;13.35;;
38034;SDS011;23841;48.524;1.342;2022-12-18T07:08:45;26.40;;;13.20;;
38034;SDS011;23841;48.524;1.342;2022-12-18T07:11:10;27.15;;;15.07;;
38034;SDS011;23841;48.524;1.342;2022-12-18T07:13:36;29.38;;;14.32;;
38034;SDS011;23841;48.524;1.342;2022-12-18T07:16:08;26.85;;;13.65;;
38034;SDS011;23841;48.524;1.342;2022-12-18T07:18:33;24.70;;;13.25;;
38034;SDS011;23841;48.524;1.342;2022-12-18T07:21:02;29.90;;;14.07;;
38034;SDS011;23841;48.524;1.342;2022-12-18T07:23:27;28.40;;;13.98;;
38034;SDS011;23841;48.524;1.342;2022-12-18T07:25:52;27.77;;;13.95;;
38034;SDS011;23841;48.524;1.342;2022-12-18T07:28:18;29.15;;;14.73;;
38034;SDS011;23841;48.524;1.342;2022-12-18T07:30:43;25.42;;;13.68;;
38034;SDS011;23841;48.524;1.342;2022-12-18T07:33:08;30.55;;;15.25;;
38034;SDS011;23841;48.524;1.342;2022-12-18T07:35:34;31.10;;;14.13;;
38034;SDS011;23841;48.524;1.342;2022-12-18T07:37:59;28.02;;;14.13;;
38034;SDS011;23841;48.524;1.342;2022-12-18T07:40:25;29.65;;;15.10;;
38034;SDS011;23841;48.524;1.342;2022-12-18T07:42:50;28.95;;;14.73;;
38034;SDS011;23841;48.524;1.342;2022-12-18T07:45:15;28.90;;;15.20;;
38034;SDS011;23841;48.524;1.342;2022-12-18T07:47:41;27.50;;;14.20;;
38034;SDS011;23841;48.524;1.342;2022-12-18T07:50:06;25.50;;;13.85;;
38034;SDS011;23841;48.524;1.342;2022-12-18T07:52:31;28.63;;;14.40;;
38034;SDS011;23841;48.524;1.342;2022-12-18T07:54:57;30.95;;;15.43;;
38034;SDS011;23841;48.524;1.342;2022-12-18T07:57:22;29.30;;;14.68;;
38034;SDS011;23841;48.524;1.342;2022-12-18T07:59:47;29.27;;;14.95;;
38034;SDS011;23841;48.524;1.342;2022-12-18T08:02:12;31.60;;;14.93;;
38034;SDS011;23841;48.524;1.342;2022-12-18T08:04:38;32.13;;;15.77;;
38034;SDS011;23841;48.524;1.342;2022-12-18T08:07:03;31.35;;;15.10;;
38034;SDS011;23841;48.524;1.342;2022-12-18T08:09:28;31.40;;;15.63;;
38034;SDS011;23841;48.524;1.342;2022-12-18T08:11:54;29.35;;;14.68;;
38034;SDS011;23841;48.524;1.342;2022-12-18T08:14:19;27.42;;;13.50;;
38034;SDS011;23841;48.524;1.342;2022-12-18T08:16:44;30.52;;;15.50;;
38034;SDS011;23841;48.524;1.342;2022-12-18T08:19:10;30.40;;;15.20;;
38034;SDS011;23841;48.524;1.342;2022-12-18T08:21:35;26.92;;;14.02;;
38034;SDS011;23841;48.524;1.342;2022-12-18T08:24:00;31.08;;;14.95;;
38034;SDS011;23841;48.524;1.342;2022-12-18T08:26:27;29.33;;;14.75;;
38034;SDS011;23841;48.524;1.342;2022-12-18T08:28:53;27.58;;;14.93;;
38034;SDS011;23841;48.524;1.342;2022-12-18T08:31:19;31.23;;;14.70;;
38034;SDS011;23841;48.524;1.342;2022-12-18T08:33:44;31.73;;;15.40;;
38034;SDS011;23841;48.524;1.342;2022-12-18T08:36:12;26.15;;;14.18;;
38034;SDS011;23841;48.524;1.342;2022-12-18T08:38:38;29.85;;;16.15;;
38034;SDS011;23841;48.524;1.342;2022-12-18T08:41:04;27.88;;;14.88;;
38034;SDS011;23841;48.524;1.342;2022-12-18T08:43:30;30.85;;;16.10;;
38034;SDS011;23841;48.524;1.342;2022-12-18T08:46:14;31.27;;;15.95;;
38034;SDS011;23841;48.524;1.342;2022-12-18T08:48:39;30.33;;;15.40;;
38034;SDS011;23841;48.524;1.342;2022-12-18T08:51:04;30.92;;;16.30;;
38034;SDS011;23841;48.524;1.342;2022-12-18T08:53:30;33.63;;;16.70;;
38034;SDS011;23841;48.524;1.342;2022-12-18T08:55:58;37.38;;;18.42;;
38034;SDS011;23841;48.524;1.342;2022-12-18T08:58:23;34.63;;;17.73;;
38034;SDS011;23841;48.524;1.342;2022-12-18T09:00:48;41.03;;;20.15;;
38034;SDS011;23841;48.524;1.342;2022-12-18T09:03:15;39.70;;;19.48;;
38034;SDS011;23841;48.524;1.342;2022-12-18T09:05:40;43.15;;;21.10;;
38034;SDS011;23841;48.524;1.342;2022-12-18T09:08:06;38.40;;;19.42;;
38034;SDS011;23841;48.524;1.342;2022-12-18T09:10:31;34.65;;;18.77;;
38034;SDS011;23841;48.524;1.342;2022-12-18T09:12:56;37.08;;;19.70;;
38034;SDS011;23841;48.524;1.342;2022-12-18T09:15:22;36.97;;;19.50;;
38034;SDS011;23841;48.524;1.342;2022-12-18T09:17:47;40.67;;;19.98;;
38034;SDS011;23841;48.524;1.342;2022-12-18T09:20:13;37.78;;;17.77;;
38034;SDS011;23841;48.524;1.342;2022-12-18T09:22:38;40.00;;;20.00;;
38034;SDS011;23841;48.524;1.342;2022-12-18T09:25:04;41.70;;;20.83;;
38034;SDS011;23841;48.524;1.342;2022-12-18T09:27:32;38.10;;;19.70;;
38034;SDS011;23841;48.524;1.342;2022-12-18T09:29:57;40.47;;;20.92;;
38034;SDS011;23841;48.524;1.342;2022-12-18T09:32:23;39.88;;;20.60;;
38034;SDS011;23841;48.524;1.342;2022-12-18T09:34:48;35.42;;;19.08;;
38034;SDS011;23841;48.524;1.342;2022-12-18T09:37:14;36.53;;;19.58;;
38034;SDS011;23841;48.524;1.342;2022-12-18T09:39:39;37.38;;;17.55;;
38034;SDS011;23841;48.524;1.342;2022-12-18T09:42:04;32.95;;;17.85;;
38034;SDS011;23841;48.524;1.342;2022-12-18T09:44:41;32.70;;;17.70;;
38034;SDS011;23841;48.524;1.342;2022-12-18T09:47:17;30.23;;;16.63;;
38034;SDS011;23841;48.524;1.342;2022-12-18T09:49:44;32.08;;;16.63;;
38034;SDS011;23841;48.524;1.342;2022-12-18T09:52:21;29.90;;;16.52;;
38034;SDS011;23841;48.524;1.342;2022-12-18T09:57:33;29.77;;;15.85;;
38034;SDS011;23841;48.524;1.342;2022-12-18T10:00:11;33.05;;;16.98;;
38034;SDS011;23841;48.524;1.342;2022-12-18T10:02:40;28.15;;;15.38;;
38034;SDS011;23841;48.524;1.342;2022-12-18T10:13:30;38.00;;;17.02;;
38034;SDS011;23841;48.524;1.342;2022-12-18T10:16:03;30.75;;;15.32;;
38034;SDS011;23841;48.524;1.342;2022-12-18T10:20:56;28.15;;;14.27;;
38034;SDS011;23841;48.524;1.342;2022-12-18T10:26:03;25.70;;;14.35;;
38034;SDS011;23841;48.524;1.342;2022-12-18T10:28:30;25.50;;;14.15;;
38034;SDS011;23841;48.524;1.342;2022-12-18T10:30:55;31.45;;;15.27;;
38034;SDS011;23841;48.524;1.342;2022-12-18T10:33:22;23.20;;;13.43;;
38034;SDS011;23841;48.524;1.342;2022-12-18T10:35:51;29.52;;;13.68;;
38034;SDS011;23841;48.524;1.342;2022-12-18T10:43:14;25.05;;;13.93;;
38034;SDS011;23841;48.524;1.342;2022-12-18T10:45:41;24.30;;;13.68;;
38034;SDS011;23841;48.524;1.342;2022-12-18T10:48:17;26.23;;;13.00;;
38034;SDS011;23841;48.524;1.342;2022-12-18T10:50:42;26.42;;;12.48;;
38034;SDS011;23841;48.524;1.342;2022-12-18T10:53:13;26.17;;;13.68;;
38034;SDS011;23841;48.524;1.342;2022-12-18T10:55:44;24.73;;;13.35;;
38034;SDS011;23841;48.524;1.342;2022-12-18T11:04:08;26.60;;;13.27;;
38034;SDS011;23841;48.524;1.342;2022-12-18T11:06:32;26.60;;;12.50;;
38034;SDS011;23841;48.524;1.342;2022-12-18T11:08:58;21.88;;;12.07;;
38034;SDS011;23841;48.524;1.342;2022-12-18T11:11:24;22.90;;;12.85;;
38034;SDS011;23841;48.524;1.342;2022-12-18T11:13:52;22.63;;;12.77;;
38034;SDS011;23841;48.524;1.342;2022-12-18T11:16:20;23.55;;;11.73;;
38034;SDS011;23841;48.524;1.342;2022-12-18T11:18:45;24.08;;;12.38;;
38034;SDS011;23841;48.524;1.342;2022-12-18T11:21:11;25.17;;;12.70;;
38034;SDS011;23841;48.524;1.342;2022-12-18T11:23:46;24.17;;;11.75;;
38034;SDS011;23841;48.524;1.342;2022-12-18T11:26:13;24.55;;;12.25;;
38034;SDS011;23841;48.524;1.342;2022-12-18T11:28:39;22.75;;;12.00;;
38034;SDS011;23841;48.524;1.342;2022-12-18T11:33:41;23.98;;;13.27;;
38034;SDS011;23841;48.524;1.342;2022-12-18T11:36:07;20.60;;;11.63;;
38034;SDS011;23841;48.524;1.342;2022-12-18T11:38:35;20.63;;;10.52;;
38034;SDS011;23841;48.524;1.342;2022-12-18T11:43:44;21.35;;;11.90;;
38034;SDS011;23841;48.524;1.342;2022-12-18T11:46:13;23.35;;;11.50;;
38034;SDS011;23841;48.524;1.342;2022-12-18T11:48:49;22.60;;;10.73;;
38034;SDS011;23841;48.524;1.342;2022-12-18T11:51:20;19.98;;;10.88;;
38034;SDS011;23841;48.524;1.342;2022-12-18T11:53:47;21.45;;;11.02;;
38034;SDS011;23841;48.524;1.342;2022-12-18T11:56:18;20.30;;;11.02;;
38034;SDS011;23841;48.524;1.342;2022-12-18T11:59:00;23.80;;;11.60;;
38034;SDS011;23841;48.524;1.342;2022-12-18T12:01:50;18.92;;;10.57;;
38034;SDS011;23841;48.524;1.342;2022-12-18T12:11:54;21.02;;;10.30;;
38034;SDS011;23841;48.524;1.342;2022-12-18T12:14:43;16.73;;;9.38;;
38034;SDS011;23841;48.524;1.342;2022-12-18T12:22:56;21.50;;;11.15;;
38034;SDS011;23841;48.524;1.342;2022-12-18T12:30:18;20.67;;;10.57;;
38034;SDS011;23841;48.524;1.342;2022-12-18T12:38:16;19.05;;;9.57;;
38034;SDS011;23841;48.524;1.342;2022-12-18T12:40:45;20.33;;;10.73;;
38034;SDS011;23841;48.524;1.342;2022-12-18T12:43:18;21.27;;;11.43;;
38034;SDS011;23841;48.524;1.342;2022-12-18T12:45:46;21.70;;;11.05;;
38034;SDS011;23841;48.524;1.342;2022-12-18T12:48:17;21.30;;;11.15;;
38034;SDS011;23841;48.524;1.342;2022-12-18T12:50:44;21.13;;;11.25;;
38034;SDS011;23841;48.524;1.342;2022-12-18T12:53:13;22.58;;;11.93;;
38034;SDS011;23841;48.524;1.342;2022-12-18T12:55:41;20.27;;;10.93;;
38034;SDS011;23841;48.524;1.342;2022-12-18T13:00:56;20.77;;;10.02;;
38034;SDS011;23841;48.524;1.342;2022-12-18T13:03:42;21.80;;;11.00;;
38034;SDS011;23841;48.524;1.342;2022-12-18T13:08:51;18.17;;;9.90;;
38034;SDS011;23841;48.524;1.342;2022-12-18T13:14:40;21.77;;;10.43;;
38034;SDS011;23841;48.524;1.342;2022-12-18T13:17:14;19.73;;;10.55;;
38034;SDS011;23841;48.524;1.342;2022-12-18T13:19:39;19.77;;;10.52;;
38034;SDS011;23841;48.524;1.342;2022-12-18T13:22:12;22.85;;;10.98;;
38034;SDS011;23841;48.524;1.342;2022-12-18T13:24:45;25.15;;;12.68;;
38034;SDS011;23841;48.524;1.342;2022-12-18T13:29:55;20.75;;;10.98;;
38034;SDS011;23841;48.524;1.342;2022-12-18T13:32:24;22.95;;;11.52;;
38034;SDS011;23841;48.524;1.342;2022-12-18T13:37:52;26.42;;;10.85;;
38034;SDS011;23841;48.524;1.342;2022-12-18T13:43:01;21.00;;;10.68;;
38034;SDS011;23841;48.524;1.342;2022-12-18T13:45:40;20.25;;;10.75;;
38034;SDS011;23841;48.524;1.342;2022-12-18T13:48:13;23.08;;;10.35;;
38034;SDS011;23841;48.524;1.342;2022-12-18T13:50:40;18.80;;;9.88;;
38034;SDS011;23841;48.524;1.342;2022-12-18T13:53:05;26.27;;;12.35;;
38034;SDS011;23841;48.524;1.342;2022-12-18T13:55:30;23.13;;;10.82;;
38034;SDS011;23841;48.524;1.342;2022-12-18T13:58:03;21.73;;;10.57;;
38034;SDS011;23841;48.524;1.342;2022-12-18T14:00:29;19.33;;;10.52;;
38034;SDS011;23841;48.524;1.342;2022-12-18T14:02:55;21.00;;;10.98;;
38034;SDS011;23841;48.524;1.342;2022-12-18T14:05:30;19.90;;;10.65;;
38034;SDS011;23841;48.524;1.342;2022-12-18T14:08:00;22.17;;;10.93;;
38034;SDS011;23841;48.524;1.342;2022-12-18T14:10:26;21.25;;;10.70;;
38034;SDS011;23841;48.524;1.342;2022-12-18T14:12:52;19.70;;;9.75;;
38034;SDS011;23841;48.524;1.342;2022-12-18T14:17:50;20.80;;;10.27;;
38034;SDS011;23841;48.524;1.342;2022-12-18T14:20:15;21.02;;;9.85;;
38034;SDS011;23841;48.524;1.342;2022-12-18T14:22:45;20.05;;;9.85;;
38034;SDS011;23841;48.524;1.342;2022-12-18T14:25:15;19.60;;;9.98;;
38034;SDS011;23841;48.524;1.342;2022-12-18T14:27:44;18.23;;;9.48;;
38034;SDS011;23841;48.524;1.342;2022-12-18T14:35:36;16.65;;;8.98;;
38034;SDS011;23841;48.524;1.342;2022-12-18T14:38:09;17.33;;;9.50;;
38034;SDS011;23841;48.524;1.342;2022-12-18T14:40:35;21.73;;;10.68;;
38034;SDS011;23841;48.524;1.342;2022-12-18T14:43:00;17.13;;;9.50;;
38034;SDS011;23841;48.524;1.342;2022-12-18T14:45:44;19.42;;;9.95;;
38034;SDS011;23841;48.524;1.342;2022-12-18T14:50:36;20.17;;;9.73;;
38034;SDS011;23841;48.524;1.342;2022-12-18T14:53:02;18.65;;;9.30;;
38034;SDS011;23841;48.524;1.342;2022-12-18T14:55:27;19.55;;;10.23;;
38034;SDS011;23841;48.524;1.342;2022-12-18T14:57:53;17.50;;;9.00;;
38034;SDS011;23841;48.524;1.342;2022-12-18T15:00:20;19.25;;;10.00;;
38034;SDS011;23841;48.524;1.342;2022-12-18T15:02:47;21.60;;;10.85;;
38034;SDS011;23841;48.524;1.342;2022-12-18T15:07:48;15.75;;;8.27;;
38034;SDS011;23841;48.524;1.342;2022-12-18T15:10:17;17.00;;;9.50;;
38034;SDS011;23841;48.524;1.342;2022-12-18T15:12:49;17.05;;;9.02;;
38034;SDS011;23841;48.524;1.342;2022-12-18T15:20:32;16.60;;;8.50;;
38034;SDS011;23841;48.524;1.342;2022-12-18T15:23:04;16.40;;;8.13;;
38034;SDS011;23841;48.524;1.342;2022-12-18T15:25:34;16.83;;;9.35;;
38034;SDS011;23841;48.524;1.342;2022-12-18T15:28:01;15.73;;;8.63;;
38034;SDS011;23841;48.524;1.342;2022-12-18T15:30:27;17.42;;;9.23;;
38034;SDS011;23841;48.524;1.342;2022-12-18T15:32:52;17.02;;;8.50;;
38034;SDS011;23841;48.524;1.342;2022-12-18T15:35:37;16.75;;;8.38;;
38034;SDS011;23841;48.524;1.342;2022-12-18T15:38:03;17.40;;;8.38;;
38034;SDS011;23841;48.524;1.342;2022-12-18T15:40:28;17.17;;;9.15;;
38034;SDS011;23841;48.524;1.342;2022-12-18T15:42:53;18.38;;;9.45;;
38034;SDS011;23841;48.524;1.342;2022-12-18T15:45:39;15.37;;;9.13;;
38034;SDS011;23841;48.524;1.342;2022-12-18T15:48:15;16.45;;;8.32;;
38034;SDS011;23841;48.524;1.342;2022-12-18T15:50:41;15.38;;;8.43;;
38034;SDS011;23841;48.524;1.342;2022-12-18T15:53:07;17.52;;;9.05;;
38034;SDS011;23841;48.524;1.342;2022-12-18T15:55:33;17.17;;;8.68;;
38034;SDS011;23841;48.524;1.342;2022-12-18T15:58:17;18.58;;;8.30;;
38034;SDS011;23841;48.524;1.342;2022-12-18T16:00:42;13.90;;;7.68;;
38034;SDS011;23841;48.524;1.342;2022-12-18T16:03:08;19.00;;;8.15;;
38034;SDS011;23841;48.524;1.342;2022-12-18T16:05:34;17.35;;;8.75;;
38034;SDS011;23841;48.524;1.342;2022-12-18T16:07:59;17.20;;;9.00;;
38034;SDS011;23841;48.524;1.342;2022-12-18T16:10:25;17.40;;;8.57;;
38034;SDS011;23841;48.524;1.342;2022-12-18T16:12:51;17.35;;;8.60;;
38034;SDS011;23841;48.524;1.342;2022-12-18T16:15:16;14.35;;;7.82;;
38034;SDS011;23841;48.524;1.342;2022-12-18T16:17:42;15.32;;;8.40;;
38034;SDS011;23841;48.524;1.342;2022-12-18T16:20:18;16.98;;;8.95;;
38034;SDS011;23841;48.524;1.342;2022-12-18T16:22:44;14.27;;;7.90;;
38034;SDS011;23841;48.524;1.342;2022-12-18T16:25:20;15.02;;;7.95;;
38034;SDS011;23841;48.524;1.342;2022-12-18T16:27:46;16.77;;;8.68;;